sensor_id;sensor_type;location;lat;lon;timestamp;P1;durP1;ratioP1;P2;durP2;ratioP2
8066;SDS011;4076;48.076;9.118;2023-07-02T00:02:20;3.20;;;1.90;;
8066;SDS011;4076;48.076;9.118;2023-07-02T00:04:46;3.93;;;1.40;;
8066;SDS011;4076;48.076;9.118;2023-07-02T00:07:12;3.17;;;1.53;;
8066;SDS011;4076;48.076;9.118;2023-07-02T00:09:37;3.43;;;2.03;;
8066;SDS011;4076;48.076;9.118;2023-07-02T00:12:03;4.20;;;1.50;;
8066;SDS011;4076;48.076;9.118;2023-07-02T00:14:29;4.17;;;2.10;;
8066;SDS011;4076;48.076;9.118;2023-07-02T00:16:54;3.17;;;1.50;;
8066;SDS011;4076;48.076;9.118;2023-07-02T00:19:20;2.90;;;1.40;;
8066;SDS011;4076;48.076;9.118;2023-07-02T00:21:46;3.37;;;1.60;;
8066;SDS011;4076;48.076;9.118;2023-07-02T00:24:12;2.93;;;1.67;;
8066;SDS011;4076;48.076;9.118;2023-07-02T00:26:38;3.00;;;1.50;;
8066;SDS011;4076;48.076;9.118;2023-07-02T00:29:05;4.00;;;1.60;;
8066;SDS011;4076;48.076;9.118;2023-07-02T00:31:32;3.37;;;1.53;;
8066;SDS011;4076;48.076;9.118;2023-07-02T00:33:58;4.10;;;2.10;;
8066;SDS011;4076;48.076;9.118;2023-07-02T00:36:26;3.83;;;2.03;;
8066;SDS011;4076;48.076;9.118;2023-07-02T00:38:52;4.13;;;2.50;;
8066;SDS011;4076;48.076;9.118;2023-07-02T00:41:17;3.57;;;2.23;;
8066;SDS011;4076;48.076;9.118;2023-07-02T00:43:43;4.30;;;2.33;;
8066;SDS011;4076;48.076;9.118;2023-07-02T00:46:16;4.50;;;2.30;;
8066;SDS011;4076;48.076;9.118;2023-07-02T00:48:46;3.43;;;1.97;;
8066;SDS011;4076;48.076;9.118;2023-07-02T00:51:13;3.63;;;2.67;;
8066;SDS011;4076;48.076;9.118;2023-07-02T00:53:41;4.37;;;2.23;;
8066;SDS011;4076;48.076;9.118;2023-07-02T00:56:09;5.80;;;2.33;;
8066;SDS011;4076;48.076;9.118;2023-07-02T00:58:36;4.17;;;2.27;;
8066;SDS011;4076;48.076;9.118;2023-07-02T01:01:05;4.27;;;2.60;;
8066;SDS011;4076;48.076;9.118;2023-07-02T01:03:30;4.10;;;2.47;;
8066;SDS011;4076;48.076;9.118;2023-07-02T01:05:58;4.33;;;2.10;;
8066;SDS011;4076;48.076;9.118;2023-07-02T01:08:24;3.30;;;1.73;;
8066;SDS011;4076;48.076;9.118;2023-07-02T01:10:49;3.42;;;1.80;;
8066;SDS011;4076;48.076;9.118;2023-07-02T01:13:17;3.10;;;1.67;;
8066;SDS011;4076;48.076;9.118;2023-07-02T01:15:46;2.87;;;1.60;;
8066;SDS011;4076;48.076;9.118;2023-07-02T01:18:13;3.17;;;1.67;;
8066;SDS011;4076;48.076;9.118;2023-07-02T01:20:41;3.77;;;2.10;;
8066;SDS011;4076;48.076;9.118;2023-07-02T01:23:07;3.53;;;1.97;;
8066;SDS011;4076;48.076;9.118;2023-07-02T01:25:34;3.17;;;1.70;;
8066;SDS011;4076;48.076;9.118;2023-07-02T01:28:02;4.03;;;1.80;;
8066;SDS011;4076;48.076;9.118;2023-07-02T01:30:28;3.53;;;2.33;;
8066;SDS011;4076;48.076;9.118;2023-07-02T01:32:53;3.73;;;1.97;;
8066;SDS011;4076;48.076;9.118;2023-07-02T01:35:19;4.17;;;2.50;;
8066;SDS011;4076;48.076;9.118;2023-07-02T01:37:45;3.00;;;1.57;;
8066;SDS011;4076;48.076;9.118;2023-07-02T01:40:10;4.10;;;2.97;;
8066;SDS011;4076;48.076;9.118;2023-07-02T01:42:37;3.87;;;2.03;;
8066;SDS011;4076;48.076;9.118;2023-07-02T01:45:03;4.17;;;1.93;;
8066;SDS011;4076;48.076;9.118;2023-07-02T01:47:29;3.07;;;1.73;;
8066;SDS011;4076;48.076;9.118;2023-07-02T01:49:54;4.33;;;2.80;;
8066;SDS011;4076;48.076;9.118;2023-07-02T01:52:20;3.30;;;2.20;;
8066;SDS011;4076;48.076;9.118;2023-07-02T01:54:46;3.60;;;2.23;;
8066;SDS011;4076;48.076;9.118;2023-07-02T01:57:11;3.47;;;2.13;;
8066;SDS011;4076;48.076;9.118;2023-07-02T01:59:37;5.03;;;3.73;;
8066;SDS011;4076;48.076;9.118;2023-07-02T02:02:03;3.77;;;1.93;;
8066;SDS011;4076;48.076;9.118;2023-07-02T02:04:28;4.03;;;1.93;;
8066;SDS011;4076;48.076;9.118;2023-07-02T02:06:54;3.30;;;1.53;;
8066;SDS011;4076;48.076;9.118;2023-07-02T02:09:20;3.67;;;2.10;;
8066;SDS011;4076;48.076;9.118;2023-07-02T02:11:47;3.37;;;1.67;;
8066;SDS011;4076;48.076;9.118;2023-07-02T02:14:14;3.03;;;1.70;;
8066;SDS011;4076;48.076;9.118;2023-07-02T02:16:40;3.33;;;1.97;;
8066;SDS011;4076;48.076;9.118;2023-07-02T02:19:05;3.60;;;1.70;;
8066;SDS011;4076;48.076;9.118;2023-07-02T02:21:31;4.73;;;2.60;;
8066;SDS011;4076;48.076;9.118;2023-07-02T02:23:57;3.83;;;2.10;;
8066;SDS011;4076;48.076;9.118;2023-07-02T02:26:23;3.57;;;1.90;;
8066;SDS011;4076;48.076;9.118;2023-07-02T02:28:50;3.33;;;1.90;;
8066;SDS011;4076;48.076;9.118;2023-07-02T02:31:16;3.97;;;1.80;;
8066;SDS011;4076;48.076;9.118;2023-07-02T02:33:42;3.37;;;1.87;;
8066;SDS011;4076;48.076;9.118;2023-07-02T02:36:07;3.40;;;1.97;;
8066;SDS011;4076;48.076;9.118;2023-07-02T02:38:33;5.37;;;2.50;;
8066;SDS011;4076;48.076;9.118;2023-07-02T02:40:59;4.83;;;3.17;;
8066;SDS011;4076;48.076;9.118;2023-07-02T02:43:25;5.13;;;3.57;;
8066;SDS011;4076;48.076;9.118;2023-07-02T02:45:51;4.40;;;2.40;;
8066;SDS011;4076;48.076;9.118;2023-07-02T02:48:16;5.07;;;2.53;;
8066;SDS011;4076;48.076;9.118;2023-07-02T02:50:42;4.10;;;2.13;;
8066;SDS011;4076;48.076;9.118;2023-07-02T02:53:08;4.13;;;2.10;;
8066;SDS011;4076;48.076;9.118;2023-07-02T02:55:37;9.77;;;3.30;;
8066;SDS011;4076;48.076;9.118;2023-07-02T02:58:03;3.83;;;1.93;;
8066;SDS011;4076;48.076;9.118;2023-07-02T03:00:29;6.23;;;2.70;;
8066;SDS011;4076;48.076;9.118;2023-07-02T03:02:55;4.10;;;2.60;;
8066;SDS011;4076;48.076;9.118;2023-07-02T03:05:20;3.27;;;1.93;;
8066;SDS011;4076;48.076;9.118;2023-07-02T03:07:50;4.50;;;2.60;;
8066;SDS011;4076;48.076;9.118;2023-07-02T03:10:16;3.70;;;2.03;;
8066;SDS011;4076;48.076;9.118;2023-07-02T03:12:42;4.40;;;2.20;;
8066;SDS011;4076;48.076;9.118;2023-07-02T03:15:07;3.90;;;2.07;;
8066;SDS011;4076;48.076;9.118;2023-07-02T03:17:34;3.93;;;2.10;;
8066;SDS011;4076;48.076;9.118;2023-07-02T03:20:00;3.07;;;1.60;;
8066;SDS011;4076;48.076;9.118;2023-07-02T03:22:26;4.33;;;2.67;;
8066;SDS011;4076;48.076;9.118;2023-07-02T03:24:51;5.37;;;3.03;;
8066;SDS011;4076;48.076;9.118;2023-07-02T03:27:17;4.10;;;2.50;;
8066;SDS011;4076;48.076;9.118;2023-07-02T03:29:43;4.50;;;2.23;;
8066;SDS011;4076;48.076;9.118;2023-07-02T03:32:08;3.80;;;2.10;;
8066;SDS011;4076;48.076;9.118;2023-07-02T03:34:34;4.60;;;2.90;;
8066;SDS011;4076;48.076;9.118;2023-07-02T03:36:59;4.73;;;2.37;;
8066;SDS011;4076;48.076;9.118;2023-07-02T03:39:25;4.13;;;2.37;;
8066;SDS011;4076;48.076;9.118;2023-07-02T03:41:51;5.47;;;2.93;;
8066;SDS011;4076;48.076;9.118;2023-07-02T03:44:16;5.20;;;3.10;;
8066;SDS011;4076;48.076;9.118;2023-07-02T03:46:42;4.80;;;2.90;;
8066;SDS011;4076;48.076;9.118;2023-07-02T03:49:08;4.40;;;2.50;;
8066;SDS011;4076;48.076;9.118;2023-07-02T03:51:34;4.00;;;2.53;;
8066;SDS011;4076;48.076;9.118;2023-07-02T03:53:59;3.57;;;2.57;;
8066;SDS011;4076;48.076;9.118;2023-07-02T03:56:25;6.13;;;3.47;;
8066;SDS011;4076;48.076;9.118;2023-07-02T03:58:51;5.00;;;3.60;;
8066;SDS011;4076;48.076;9.118;2023-07-02T04:01:17;4.00;;;3.17;;
8066;SDS011;4076;48.076;9.118;2023-07-02T04:03:49;4.37;;;2.90;;
8066;SDS011;4076;48.076;9.118;2023-07-02T04:06:16;3.87;;;2.40;;
8066;SDS011;4076;48.076;9.118;2023-07-02T04:08:42;3.73;;;2.13;;
8066;SDS011;4076;48.076;9.118;2023-07-02T04:11:07;5.77;;;3.50;;
8066;SDS011;4076;48.076;9.118;2023-07-02T04:13:33;4.67;;;2.20;;
8066;SDS011;4076;48.076;9.118;2023-07-02T04:15:59;5.63;;;3.50;;
8066;SDS011;4076;48.076;9.118;2023-07-02T04:18:24;5.03;;;2.93;;
8066;SDS011;4076;48.076;9.118;2023-07-02T04:20:50;9.00;;;3.37;;
8066;SDS011;4076;48.076;9.118;2023-07-02T04:23:15;5.93;;;3.87;;
8066;SDS011;4076;48.076;9.118;2023-07-02T04:25:41;4.87;;;2.80;;
8066;SDS011;4076;48.076;9.118;2023-07-02T04:28:07;3.63;;;2.10;;
8066;SDS011;4076;48.076;9.118;2023-07-02T04:30:32;3.90;;;2.80;;
8066;SDS011;4076;48.076;9.118;2023-07-02T04:32:58;6.10;;;3.67;;
8066;SDS011;4076;48.076;9.118;2023-07-02T04:35:23;5.60;;;3.70;;
8066;SDS011;4076;48.076;9.118;2023-07-02T04:37:49;7.10;;;4.73;;
8066;SDS011;4076;48.076;9.118;2023-07-02T04:40:15;3.90;;;3.10;;
8066;SDS011;4076;48.076;9.118;2023-07-02T04:42:41;4.40;;;3.07;;
8066;SDS011;4076;48.076;9.118;2023-07-02T04:45:11;5.10;;;2.70;;
8066;SDS011;4076;48.076;9.118;2023-07-02T04:47:38;4.77;;;2.97;;
8066;SDS011;4076;48.076;9.118;2023-07-02T04:50:04;4.10;;;2.70;;
8066;SDS011;4076;48.076;9.118;2023-07-02T04:52:33;5.33;;;3.40;;
8066;SDS011;4076;48.076;9.118;2023-07-02T04:54:58;5.40;;;3.60;;
8066;SDS011;4076;48.076;9.118;2023-07-02T04:57:24;4.30;;;2.87;;
8066;SDS011;4076;48.076;9.118;2023-07-02T04:59:49;5.37;;;3.90;;
8066;SDS011;4076;48.076;9.118;2023-07-02T05:02:15;6.33;;;3.70;;
8066;SDS011;4076;48.076;9.118;2023-07-02T05:04:41;5.27;;;3.90;;
8066;SDS011;4076;48.076;9.118;2023-07-02T05:07:06;4.73;;;3.07;;
8066;SDS011;4076;48.076;9.118;2023-07-02T05:09:32;5.43;;;3.73;;
8066;SDS011;4076;48.076;9.118;2023-07-02T05:11:57;6.27;;;4.00;;
8066;SDS011;4076;48.076;9.118;2023-07-02T05:14:23;5.37;;;3.70;;
8066;SDS011;4076;48.076;9.118;2023-07-02T05:16:49;5.70;;;3.10;;
8066;SDS011;4076;48.076;9.118;2023-07-02T05:19:15;5.30;;;3.50;;
8066;SDS011;4076;48.076;9.118;2023-07-02T05:21:41;9.60;;;3.90;;
8066;SDS011;4076;48.076;9.118;2023-07-02T05:24:07;4.97;;;3.57;;
8066;SDS011;4076;48.076;9.118;2023-07-02T05:26:33;4.53;;;2.70;;
8066;SDS011;4076;48.076;9.118;2023-07-02T05:28:59;3.60;;;2.40;;
8066;SDS011;4076;48.076;9.118;2023-07-02T05:31:24;4.50;;;3.00;;
8066;SDS011;4076;48.076;9.118;2023-07-02T05:33:50;5.40;;;3.40;;
8066;SDS011;4076;48.076;9.118;2023-07-02T05:36:15;5.63;;;3.77;;
8066;SDS011;4076;48.076;9.118;2023-07-02T05:38:41;4.70;;;3.80;;
8066;SDS011;4076;48.076;9.118;2023-07-02T05:41:07;6.17;;;3.17;;
8066;SDS011;4076;48.076;9.118;2023-07-02T05:43:32;5.57;;;3.87;;
8066;SDS011;4076;48.076;9.118;2023-07-02T05:45:58;3.93;;;2.60;;
8066;SDS011;4076;48.076;9.118;2023-07-02T05:48:27;5.73;;;3.33;;
8066;SDS011;4076;48.076;9.118;2023-07-02T05:50:53;5.30;;;3.77;;
8066;SDS011;4076;48.076;9.118;2023-07-02T05:53:19;5.67;;;3.90;;
8066;SDS011;4076;48.076;9.118;2023-07-02T05:55:45;4.80;;;3.40;;
8066;SDS011;4076;48.076;9.118;2023-07-02T05:58:12;5.50;;;3.90;;
8066;SDS011;4076;48.076;9.118;2023-07-02T06:00:37;5.60;;;3.40;;
8066;SDS011;4076;48.076;9.118;2023-07-02T06:03:04;4.97;;;3.60;;
8066;SDS011;4076;48.076;9.118;2023-07-02T06:05:30;4.43;;;3.00;;
8066;SDS011;4076;48.076;9.118;2023-07-02T06:07:55;6.13;;;3.90;;
8066;SDS011;4076;48.076;9.118;2023-07-02T06:10:21;5.20;;;3.40;;
8066;SDS011;4076;48.076;9.118;2023-07-02T06:12:47;4.90;;;3.03;;
8066;SDS011;4076;48.076;9.118;2023-07-02T06:15:12;4.90;;;3.20;;
8066;SDS011;4076;48.076;9.118;2023-07-02T06:17:38;6.10;;;3.60;;
8066;SDS011;4076;48.076;9.118;2023-07-02T06:20:03;4.90;;;3.00;;
8066;SDS011;4076;48.076;9.118;2023-07-02T06:22:30;5.23;;;3.10;;
8066;SDS011;4076;48.076;9.118;2023-07-02T06:24:56;8.53;;;4.20;;
8066;SDS011;4076;48.076;9.118;2023-07-02T06:27:21;5.77;;;3.83;;
8066;SDS011;4076;48.076;9.118;2023-07-02T06:29:47;8.23;;;4.07;;
8066;SDS011;4076;48.076;9.118;2023-07-02T06:32:12;5.30;;;3.40;;
8066;SDS011;4076;48.076;9.118;2023-07-02T06:34:38;7.03;;;4.43;;
8066;SDS011;4076;48.076;9.118;2023-07-02T06:37:04;6.10;;;4.87;;
8066;SDS011;4076;48.076;9.118;2023-07-02T06:39:30;5.70;;;3.70;;
8066;SDS011;4076;48.076;9.118;2023-07-02T06:41:55;5.50;;;4.13;;
8066;SDS011;4076;48.076;9.118;2023-07-02T06:44:21;6.43;;;4.47;;
8066;SDS011;4076;48.076;9.118;2023-07-02T06:46:46;7.10;;;5.33;;
8066;SDS011;4076;48.076;9.118;2023-07-02T06:49:12;10.00;;;6.60;;
8066;SDS011;4076;48.076;9.118;2023-07-02T06:51:38;12.23;;;7.40;;
8066;SDS011;4076;48.076;9.118;2023-07-02T06:54:03;9.70;;;6.73;;
8066;SDS011;4076;48.076;9.118;2023-07-02T06:56:29;9.07;;;6.20;;
8066;SDS011;4076;48.076;9.118;2023-07-02T06:58:56;9.03;;;6.30;;
8066;SDS011;4076;48.076;9.118;2023-07-02T07:01:22;11.77;;;7.30;;
8066;SDS011;4076;48.076;9.118;2023-07-02T07:03:47;9.37;;;7.37;;
8066;SDS011;4076;48.076;9.118;2023-07-02T07:06:13;8.23;;;6.00;;
8066;SDS011;4076;48.076;9.118;2023-07-02T07:08:38;8.57;;;7.10;;
8066;SDS011;4076;48.076;9.118;2023-07-02T07:11:04;15.10;;;8.50;;
8066;SDS011;4076;48.076;9.118;2023-07-02T07:13:30;11.43;;;7.03;;
8066;SDS011;4076;48.076;9.118;2023-07-02T07:15:55;9.93;;;8.40;;
8066;SDS011;4076;48.076;9.118;2023-07-02T07:18:21;9.20;;;6.90;;
8066;SDS011;4076;48.076;9.118;2023-07-02T07:20:46;11.30;;;7.83;;
8066;SDS011;4076;48.076;9.118;2023-07-02T07:23:12;8.43;;;7.33;;
8066;SDS011;4076;48.076;9.118;2023-07-02T07:25:38;8.90;;;7.57;;
8066;SDS011;4076;48.076;9.118;2023-07-02T07:28:03;10.50;;;8.90;;
8066;SDS011;4076;48.076;9.118;2023-07-02T07:30:29;11.27;;;8.60;;
8066;SDS011;4076;48.076;9.118;2023-07-02T07:32:55;11.90;;;8.60;;
8066;SDS011;4076;48.076;9.118;2023-07-02T07:35:21;11.73;;;7.97;;
8066;SDS011;4076;48.076;9.118;2023-07-02T07:37:47;14.10;;;8.97;;
8066;SDS011;4076;48.076;9.118;2023-07-02T07:40:13;11.77;;;9.90;;
8066;SDS011;4076;48.076;9.118;2023-07-02T07:42:39;11.63;;;9.77;;
8066;SDS011;4076;48.076;9.118;2023-07-02T07:45:05;11.93;;;9.77;;
8066;SDS011;4076;48.076;9.118;2023-07-02T07:47:31;13.77;;;10.63;;
8066;SDS011;4076;48.076;9.118;2023-07-02T07:49:57;11.07;;;9.57;;
8066;SDS011;4076;48.076;9.118;2023-07-02T07:52:22;13.10;;;11.70;;
8066;SDS011;4076;48.076;9.118;2023-07-02T07:54:48;15.27;;;12.00;;
8066;SDS011;4076;48.076;9.118;2023-07-02T07:57:14;11.67;;;9.13;;
8066;SDS011;4076;48.076;9.118;2023-07-02T07:59:39;10.93;;;9.40;;
8066;SDS011;4076;48.076;9.118;2023-07-02T08:02:05;16.13;;;12.67;;
8066;SDS011;4076;48.076;9.118;2023-07-02T08:04:31;13.07;;;11.30;;
8066;SDS011;4076;48.076;9.118;2023-07-02T08:06:57;13.67;;;10.90;;
8066;SDS011;4076;48.076;9.118;2023-07-02T08:09:23;14.47;;;12.80;;
8066;SDS011;4076;48.076;9.118;2023-07-02T08:11:49;16.60;;;13.47;;
8066;SDS011;4076;48.076;9.118;2023-07-02T08:14:16;13.37;;;11.80;;
8066;SDS011;4076;48.076;9.118;2023-07-02T08:16:42;12.20;;;10.90;;
8066;SDS011;4076;48.076;9.118;2023-07-02T08:19:09;17.00;;;15.30;;
8066;SDS011;4076;48.076;9.118;2023-07-02T08:21:34;15.97;;;13.07;;
8066;SDS011;4076;48.076;9.118;2023-07-02T08:24:00;13.97;;;12.67;;
8066;SDS011;4076;48.076;9.118;2023-07-02T08:26:26;16.43;;;14.53;;
8066;SDS011;4076;48.076;9.118;2023-07-02T08:28:51;15.20;;;13.60;;
8066;SDS011;4076;48.076;9.118;2023-07-02T08:31:17;15.40;;;14.00;;
8066;SDS011;4076;48.076;9.118;2023-07-02T08:33:42;16.20;;;14.77;;
8066;SDS011;4076;48.076;9.118;2023-07-02T08:36:08;14.83;;;13.33;;
8066;SDS011;4076;48.076;9.118;2023-07-02T08:38:33;13.57;;;12.30;;
8066;SDS011;4076;48.076;9.118;2023-07-02T08:40:59;15.80;;;13.30;;
8066;SDS011;4076;48.076;9.118;2023-07-02T08:43:25;14.13;;;12.77;;
8066;SDS011;4076;48.076;9.118;2023-07-02T08:45:52;21.00;;;19.00;;
8066;SDS011;4076;48.076;9.118;2023-07-02T08:48:18;18.33;;;16.43;;
8066;SDS011;4076;48.076;9.118;2023-07-02T08:50:48;17.47;;;15.60;;
8066;SDS011;4076;48.076;9.118;2023-07-02T08:53:14;17.00;;;15.50;;
8066;SDS011;4076;48.076;9.118;2023-07-02T08:55:40;15.43;;;13.93;;
8066;SDS011;4076;48.076;9.118;2023-07-02T08:58:06;15.63;;;14.30;;
8066;SDS011;4076;48.076;9.118;2023-07-02T09:00:31;17.57;;;15.93;;
8066;SDS011;4076;48.076;9.118;2023-07-02T09:03:14;16.63;;;15.10;;
8066;SDS011;4076;48.076;9.118;2023-07-02T09:05:48;18.63;;;17.20;;
8066;SDS011;4076;48.076;9.118;2023-07-02T09:08:23;19.40;;;17.30;;
8066;SDS011;4076;48.076;9.118;2023-07-02T09:10:52;17.73;;;15.97;;
8066;SDS011;4076;48.076;9.118;2023-07-02T09:13:18;19.07;;;17.13;;
8066;SDS011;4076;48.076;9.118;2023-07-02T09:15:44;22.30;;;20.00;;
8066;SDS011;4076;48.076;9.118;2023-07-02T09:18:16;16.73;;;15.20;;
8066;SDS011;4076;48.076;9.118;2023-07-02T09:20:51;16.00;;;14.50;;
8066;SDS011;4076;48.076;9.118;2023-07-02T09:23:18;20.33;;;18.60;;
8066;SDS011;4076;48.076;9.118;2023-07-02T09:25:45;19.53;;;17.63;;
8066;SDS011;4076;48.076;9.118;2023-07-02T09:28:21;19.70;;;17.83;;
8066;SDS011;4076;48.076;9.118;2023-07-02T09:30:51;18.27;;;16.47;;
8066;SDS011;4076;48.076;9.118;2023-07-02T09:33:23;19.97;;;18.07;;
8066;SDS011;4076;48.076;9.118;2023-07-02T09:35:49;18.50;;;16.83;;
8066;SDS011;4076;48.076;9.118;2023-07-02T09:38:16;17.73;;;16.33;;
8066;SDS011;4076;48.076;9.118;2023-07-02T09:40:51;20.97;;;18.97;;
8066;SDS011;4076;48.076;9.118;2023-07-02T09:43:17;17.20;;;15.80;;
8066;SDS011;4076;48.076;9.118;2023-07-02T09:45:44;19.27;;;17.23;;
8066;SDS011;4076;48.076;9.118;2023-07-02T09:48:12;19.40;;;17.60;;
8066;SDS011;4076;48.076;9.118;2023-07-02T09:50:42;19.93;;;18.00;;
8066;SDS011;4076;48.076;9.118;2023-07-02T09:53:09;20.03;;;17.87;;
8066;SDS011;4076;48.076;9.118;2023-07-02T09:55:35;18.13;;;16.33;;
8066;SDS011;4076;48.076;9.118;2023-07-02T09:58:04;19.77;;;17.60;;
8066;SDS011;4076;48.076;9.118;2023-07-02T10:00:30;18.90;;;17.00;;
8066;SDS011;4076;48.076;9.118;2023-07-02T10:02:56;18.70;;;16.73;;
8066;SDS011;4076;48.076;9.118;2023-07-02T10:05:28;20.10;;;18.13;;
8066;SDS011;4076;48.076;9.118;2023-07-02T10:07:59;19.00;;;17.33;;
8066;SDS011;4076;48.076;9.118;2023-07-02T10:10:37;20.03;;;18.13;;
8066;SDS011;4076;48.076;9.118;2023-07-02T10:13:03;20.70;;;18.77;;
8066;SDS011;4076;48.076;9.118;2023-07-02T10:15:29;19.10;;;17.13;;
8066;SDS011;4076;48.076;9.118;2023-07-02T10:17:56;20.33;;;18.13;;
8066;SDS011;4076;48.076;9.118;2023-07-02T10:20:36;22.23;;;19.83;;
8066;SDS011;4076;48.076;9.118;2023-07-02T10:23:04;18.17;;;16.27;;
8066;SDS011;4076;48.076;9.118;2023-07-02T10:25:32;20.50;;;18.53;;
8066;SDS011;4076;48.076;9.118;2023-07-02T10:28:00;18.83;;;16.83;;
8066;SDS011;4076;48.076;9.118;2023-07-02T10:30:30;25.40;;;17.80;;
8066;SDS011;4076;48.076;9.118;2023-07-02T10:33:06;18.33;;;16.40;;
8066;SDS011;4076;48.076;9.118;2023-07-02T10:35:43;17.90;;;16.10;;
8066;SDS011;4076;48.076;9.118;2023-07-02T10:38:15;16.83;;;15.03;;
8066;SDS011;4076;48.076;9.118;2023-07-02T10:40:53;19.60;;;17.10;;
8066;SDS011;4076;48.076;9.118;2023-07-02T10:43:26;19.00;;;16.40;;
8066;SDS011;4076;48.076;9.118;2023-07-02T10:45:53;21.20;;;19.17;;
8066;SDS011;4076;48.076;9.118;2023-07-02T10:48:19;18.87;;;15.50;;
8066;SDS011;4076;48.076;9.118;2023-07-02T10:50:45;17.70;;;16.00;;
8066;SDS011;4076;48.076;9.118;2023-07-02T10:53:17;15.40;;;13.80;;
8066;SDS011;4076;48.076;9.118;2023-07-02T10:55:44;14.77;;;13.27;;
8066;SDS011;4076;48.076;9.118;2023-07-02T10:58:11;16.47;;;14.70;;
8066;SDS011;4076;48.076;9.118;2023-07-02T11:00:47;17.63;;;14.03;;
8066;SDS011;4076;48.076;9.118;2023-07-02T11:03:22;16.03;;;13.17;;
8066;SDS011;4076;48.076;9.118;2023-07-02T11:05:49;16.23;;;13.70;;
8066;SDS011;4076;48.076;9.118;2023-07-02T11:08:15;15.80;;;12.47;;
8066;SDS011;4076;48.076;9.118;2023-07-02T11:10:41;15.23;;;13.63;;
8066;SDS011;4076;48.076;9.118;2023-07-02T11:13:25;17.43;;;14.10;;
8066;SDS011;4076;48.076;9.118;2023-07-02T11:15:50;16.00;;;13.40;;
8066;SDS011;4076;48.076;9.118;2023-07-02T11:18:16;14.63;;;12.17;;
8066;SDS011;4076;48.076;9.118;2023-07-02T11:20:45;14.77;;;12.77;;
8066;SDS011;4076;48.076;9.118;2023-07-02T11:23:21;15.40;;;13.70;;
8066;SDS011;4076;48.076;9.118;2023-07-02T11:25:58;19.00;;;13.57;;
8066;SDS011;4076;48.076;9.118;2023-07-02T11:28:25;14.77;;;11.43;;
8066;SDS011;4076;48.076;9.118;2023-07-02T11:30:51;10.30;;;9.20;;
8066;SDS011;4076;48.076;9.118;2023-07-02T11:33:17;12.43;;;9.60;;
8066;SDS011;4076;48.076;9.118;2023-07-02T11:35:43;13.27;;;10.93;;
8066;SDS011;4076;48.076;9.118;2023-07-02T11:38:09;9.83;;;8.80;;
8066;SDS011;4076;48.076;9.118;2023-07-02T11:40:38;12.07;;;9.27;;
8066;SDS011;4076;48.076;9.118;2023-07-02T11:43:03;13.83;;;10.67;;
8066;SDS011;4076;48.076;9.118;2023-07-02T11:45:30;10.03;;;9.00;;
8066;SDS011;4076;48.076;9.118;2023-07-02T11:47:56;10.33;;;7.87;;
8066;SDS011;4076;48.076;9.118;2023-07-02T11:50:22;12.70;;;10.10;;
8066;SDS011;4076;48.076;9.118;2023-07-02T11:52:47;10.37;;;8.83;;
8066;SDS011;4076;48.076;9.118;2023-07-02T11:55:13;11.63;;;8.27;;
8066;SDS011;4076;48.076;9.118;2023-07-02T11:57:38;10.63;;;9.30;;
8066;SDS011;4076;48.076;9.118;2023-07-02T12:00:04;11.20;;;8.30;;
8066;SDS011;4076;48.076;9.118;2023-07-02T12:02:30;12.07;;;9.60;;
8066;SDS011;4076;48.076;9.118;2023-07-02T12:04:56;10.77;;;9.47;;
8066;SDS011;4076;48.076;9.118;2023-07-02T12:07:21;9.73;;;8.73;;
8066;SDS011;4076;48.076;9.118;2023-07-02T12:09:47;9.30;;;8.40;;
8066;SDS011;4076;48.076;9.118;2023-07-02T12:12:12;8.97;;;8.10;;
8066;SDS011;4076;48.076;9.118;2023-07-02T12:14:38;9.53;;;8.53;;
8066;SDS011;4076;48.076;9.118;2023-07-02T12:17:08;8.43;;;7.60;;
8066;SDS011;4076;48.076;9.118;2023-07-02T12:19:33;8.50;;;7.70;;
8066;SDS011;4076;48.076;9.118;2023-07-02T12:21:59;9.07;;;8.17;;
8066;SDS011;4076;48.076;9.118;2023-07-02T12:24:24;7.50;;;6.67;;
8066;SDS011;4076;48.076;9.118;2023-07-02T12:26:50;6.53;;;5.90;;
8066;SDS011;4076;48.076;9.118;2023-07-02T12:29:16;8.47;;;6.80;;
8066;SDS011;4076;48.076;9.118;2023-07-02T12:31:41;8.23;;;7.53;;
8066;SDS011;4076;48.076;9.118;2023-07-02T12:34:07;9.13;;;8.20;;
8066;SDS011;4076;48.076;9.118;2023-07-02T12:36:32;8.77;;;7.80;;
8066;SDS011;4076;48.076;9.118;2023-07-02T12:38:58;10.60;;;8.40;;
8066;SDS011;4076;48.076;9.118;2023-07-02T12:41:23;8.40;;;7.60;;
8066;SDS011;4076;48.076;9.118;2023-07-02T12:43:49;9.20;;;8.33;;
8066;SDS011;4076;48.076;9.118;2023-07-02T12:46:15;11.67;;;7.43;;
8066;SDS011;4076;48.076;9.118;2023-07-02T12:48:40;9.93;;;7.80;;
8066;SDS011;4076;48.076;9.118;2023-07-02T12:51:06;12.73;;;9.80;;
8066;SDS011;4076;48.076;9.118;2023-07-02T12:53:31;10.53;;;9.20;;
8066;SDS011;4076;48.076;9.118;2023-07-02T12:55:57;9.83;;;8.80;;
8066;SDS011;4076;48.076;9.118;2023-07-02T12:58:23;9.40;;;7.90;;
8066;SDS011;4076;48.076;9.118;2023-07-02T13:00:48;8.20;;;7.47;;
8066;SDS011;4076;48.076;9.118;2023-07-02T13:03:17;10.20;;;7.30;;
8066;SDS011;4076;48.076;9.118;2023-07-02T13:05:43;8.83;;;7.60;;
8066;SDS011;4076;48.076;9.118;2023-07-02T13:08:09;8.40;;;7.17;;
8066;SDS011;4076;48.076;9.118;2023-07-02T13:10:35;12.40;;;9.00;;
8066;SDS011;4076;48.076;9.118;2023-07-02T13:13:01;9.80;;;8.40;;
8066;SDS011;4076;48.076;9.118;2023-07-02T13:15:26;7.43;;;6.67;;
8066;SDS011;4076;48.076;9.118;2023-07-02T13:17:52;11.13;;;6.97;;
8066;SDS011;4076;48.076;9.118;2023-07-02T13:20:18;9.50;;;5.80;;
8066;SDS011;4076;48.076;9.118;2023-07-02T13:22:43;10.67;;;9.43;;
8066;SDS011;4076;48.076;9.118;2023-07-02T13:25:09;7.93;;;7.00;;
8066;SDS011;4076;48.076;9.118;2023-07-02T13:27:34;7.13;;;6.43;;
8066;SDS011;4076;48.076;9.118;2023-07-02T13:30:00;7.20;;;5.33;;
8066;SDS011;4076;48.076;9.118;2023-07-02T13:32:25;6.63;;;6.03;;
8066;SDS011;4076;48.076;9.118;2023-07-02T13:34:51;9.03;;;6.97;;
8066;SDS011;4076;48.076;9.118;2023-07-02T13:37:17;8.00;;;5.97;;
8066;SDS011;4076;48.076;9.118;2023-07-02T13:39:46;9.13;;;5.87;;
8066;SDS011;4076;48.076;9.118;2023-07-02T13:42:13;6.13;;;5.43;;
8066;SDS011;4076;48.076;9.118;2023-07-02T13:44:38;6.90;;;6.20;;
8066;SDS011;4076;48.076;9.118;2023-07-02T13:47:04;9.17;;;8.23;;
8066;SDS011;4076;48.076;9.118;2023-07-02T13:49:31;6.40;;;5.70;;
8066;SDS011;4076;48.076;9.118;2023-07-02T13:51:57;7.97;;;6.80;;
8066;SDS011;4076;48.076;9.118;2023-07-02T13:54:23;6.73;;;5.67;;
8066;SDS011;4076;48.076;9.118;2023-07-02T13:56:48;6.47;;;5.83;;
8066;SDS011;4076;48.076;9.118;2023-07-02T13:59:15;7.80;;;6.63;;
8066;SDS011;4076;48.076;9.118;2023-07-02T14:01:41;7.17;;;6.20;;
8066;SDS011;4076;48.076;9.118;2023-07-02T14:04:07;6.57;;;5.97;;
8066;SDS011;4076;48.076;9.118;2023-07-02T14:06:34;5.43;;;4.90;;
8066;SDS011;4076;48.076;9.118;2023-07-02T14:08:59;6.20;;;5.60;;
8066;SDS011;4076;48.076;9.118;2023-07-02T14:11:26;7.37;;;6.63;;
8066;SDS011;4076;48.076;9.118;2023-07-02T14:13:52;6.57;;;5.30;;
8066;SDS011;4076;48.076;9.118;2023-07-02T14:16:18;7.30;;;5.93;;
8066;SDS011;4076;48.076;9.118;2023-07-02T14:18:44;8.13;;;7.33;;
8066;SDS011;4076;48.076;9.118;2023-07-02T14:21:10;6.33;;;5.57;;
8066;SDS011;4076;48.076;9.118;2023-07-02T14:23:35;9.33;;;7.03;;
8066;SDS011;4076;48.076;9.118;2023-07-02T14:26:01;8.57;;;7.53;;
8066;SDS011;4076;48.076;9.118;2023-07-02T14:28:26;7.47;;;5.60;;
8066;SDS011;4076;48.076;9.118;2023-07-02T14:30:58;6.73;;;6.10;;
8066;SDS011;4076;48.076;9.118;2023-07-02T14:33:25;6.60;;;5.33;;
8066;SDS011;4076;48.076;9.118;2023-07-02T14:35:52;10.00;;;5.57;;
8066;SDS011;4076;48.076;9.118;2023-07-02T14:38:17;11.20;;;7.87;;
8066;SDS011;4076;48.076;9.118;2023-07-02T14:40:43;8.40;;;4.97;;
8066;SDS011;4076;48.076;9.118;2023-07-02T14:43:09;13.13;;;5.87;;
8066;SDS011;4076;48.076;9.118;2023-07-02T14:45:34;6.70;;;5.37;;
8066;SDS011;4076;48.076;9.118;2023-07-02T14:48:00;7.13;;;5.20;;
8066;SDS011;4076;48.076;9.118;2023-07-02T14:50:26;7.13;;;5.90;;
8066;SDS011;4076;48.076;9.118;2023-07-02T14:52:52;5.60;;;5.10;;
8066;SDS011;4076;48.076;9.118;2023-07-02T14:55:18;6.05;;;5.43;;
8066;SDS011;4076;48.076;9.118;2023-07-02T14:57:43;8.43;;;6.90;;
8066;SDS011;4076;48.076;9.118;2023-07-02T15:00:09;6.63;;;5.50;;
8066;SDS011;4076;48.076;9.118;2023-07-02T15:02:35;7.60;;;5.40;;
8066;SDS011;4076;48.076;9.118;2023-07-02T15:05:01;7.60;;;5.30;;